VIV127 MMPR-MMMX
Flight info
| Callsign | VIV127 |
|---|---|
| Flight time | N/A |
| Altitude | 37000 |
| Route | VOLAT1D VOLAT UT119 ESPOS ESPOS3A |
| Aircraft | A20N/M-SDE2E3FGHIRWXY/LB1 |
Departure
| Time | 2026-05-05 03:43 |
|---|---|
| Airport | Puerto Vallarta International Airport (MMPR) |
Arrival
| Time | N/A |
|---|---|
| Airport | Mexico City Benito Juárez International Airport (MMMX) |
| Time | Latitude | Longitude | Altitude | Speed | Heading |
|---|---|---|---|---|---|
| 2026-05-05 03:30 | 20.67815 | -105.25078 | 29 ft | 0 kts | 239° |
| 2026-05-05 03:38 | 20.67813 | -105.25096 | 25 ft | 8 kts | 268° |
| 2026-05-05 03:39 | 20.67918 | -105.25208 | 29 ft | 23 kts | 357° |
| 2026-05-05 03:39 | 20.68019 | -105.25146 | 28 ft | 29 kts | 45° |
| 2026-05-05 03:39 | 20.68154 | -105.24986 | 26 ft | 28 kts | 45° |
| 2026-05-05 03:39 | 20.68287 | -105.24837 | 27 ft | 27 kts | 45° |
| 2026-05-05 03:40 | 20.68408 | -105.24696 | 28 ft | 25 kts | 47° |
| 2026-05-05 03:40 | 20.68524 | -105.24561 | 29 ft | 24 kts | 47° |
| 2026-05-05 03:40 | 20.68635 | -105.24434 | 29 ft | 23 kts | 47° |
| 2026-05-05 03:40 | 20.68740 | -105.24315 | 30 ft | 21 kts | 45° |
| 2026-05-05 03:41 | 20.68833 | -105.24265 | 30 ft | 11 kts | 348° |
| 2026-05-05 03:41 | 20.68862 | -105.24281 | 30 ft | 0 kts | 320° |
| 2026-05-05 03:41 | 20.68899 | -105.24335 | 30 ft | 13 kts | 288° |
| 2026-05-05 03:42 | 20.68881 | -105.24418 | 30 ft | 11 kts | 232° |
| 2026-05-05 03:42 | 20.68871 | -105.24431 | 30 ft | 0 kts | 228° |
| 2026-05-05 03:42 | 20.68780 | -105.24537 | 31 ft | 50 kts | 227° |
| 2026-05-05 03:43 | 20.68399 | -105.24976 | 27 ft | 109 kts | 227° |
| 2026-05-05 03:43 | 20.67768 | -105.25703 | 26 ft | 154 kts | 228° |
| 2026-05-05 03:43 | 20.67058 | -105.26509 | 535 ft | 141 kts | 226° |
| 2026-05-05 03:43 | 20.66364 | -105.27267 | 847 ft | 153 kts | 226° |
| 2026-05-05 03:44 | 20.65606 | -105.28124 | 1090 ft | 166 kts | 226° |
| 2026-05-05 03:44 | 20.64747 | -105.29098 | 1393 ft | 194 kts | 227° |
| 2026-05-05 03:44 | 20.63754 | -105.30226 | 1593 ft | 224 kts | 227° |
| 2026-05-05 03:44 | 20.62608 | -105.31527 | 1845 ft | 254 kts | 227° |
| 2026-05-05 03:45 | 20.61368 | -105.32931 | 2468 ft | 264 kts | 226° |
| 2026-05-05 03:45 | 20.60101 | -105.34362 | 3191 ft | 269 kts | 226° |
| 2026-05-05 03:45 | 20.58571 | -105.35509 | 3873 ft | 273 kts | 198° |
| 2026-05-05 03:45 | 20.56699 | -105.35602 | 4519 ft | 276 kts | 164° |
| 2026-05-05 03:46 | 20.55001 | -105.34620 | 5155 ft | 280 kts | 142° |
| 2026-05-05 03:46 | 20.53474 | -105.33334 | 5813 ft | 283 kts | 142° |
| 2026-05-05 03:46 | 20.51863 | -105.32094 | 6501 ft | 286 kts | 146° |
| 2026-05-05 03:46 | 20.50175 | -105.30939 | 7160 ft | 288 kts | 149° |
| 2026-05-05 03:47 | 20.48457 | -105.29858 | 7836 ft | 290 kts | 151° |
| 2026-05-05 03:47 | 20.46687 | -105.28797 | 8509 ft | 292 kts | 152° |
| 2026-05-05 03:47 | 20.44895 | -105.27751 | 9209 ft | 293 kts | 153° |
| 2026-05-05 03:47 | 20.43113 | -105.26726 | 9882 ft | 295 kts | 153° |
| 2026-05-05 03:48 | 20.41278 | -105.25672 | 10313 ft | 305 kts | 150° |
| 2026-05-05 03:48 | 20.39697 | -105.24090 | 10501 ft | 325 kts | 123° |
| 2026-05-05 03:48 | 20.38949 | -105.21788 | 10701 ft | 344 kts | 96° |
| 2026-05-05 03:48 | 20.39110 | -105.19209 | 10942 ft | 358 kts | 82° |
| 2026-05-05 03:49 | 20.39460 | -105.16552 | 11360 ft | 363 kts | 84° |
| 2026-05-05 03:49 | 20.39669 | -105.13863 | 11892 ft | 365 kts | 88° |
| 2026-05-05 03:49 | 20.39750 | -105.11135 | 12435 ft | 367 kts | 90° |
| 2026-05-05 03:49 | 20.39748 | -105.08433 | 13062 ft | 367 kts | 91° |
| 2026-05-05 03:50 | 20.39700 | -105.05696 | 13624 ft | 370 kts | 93° |
| 2026-05-05 03:50 | 20.39625 | -105.02967 | 14117 ft | 372 kts | 93° |
| 2026-05-05 03:50 | 20.39535 | -105.00194 | 14613 ft | 374 kts | 93° |
| 2026-05-05 03:50 | 20.39437 | -104.97407 | 15136 ft | 375 kts | 93° |
| 2026-05-05 03:51 | 20.39335 | -104.94626 | 15688 ft | 376 kts | 93° |
| 2026-05-05 03:51 | 20.39230 | -104.91861 | 16208 ft | 379 kts | 93° |
| 2026-05-05 03:51 | 20.39121 | -104.89032 | 16718 ft | 381 kts | 93° |
| 2026-05-05 03:51 | 20.39013 | -104.86229 | 17233 ft | 383 kts | 93° |
| 2026-05-05 03:52 | 20.38902 | -104.83379 | 17744 ft | 385 kts | 93° |
| 2026-05-05 03:52 | 20.38791 | -104.80522 | 18230 ft | 387 kts | 93° |
| 2026-05-05 03:52 | 20.38677 | -104.77637 | 18657 ft | 389 kts | 93° |
| 2026-05-05 03:52 | 20.38562 | -104.74763 | 19018 ft | 392 kts | 93° |
| 2026-05-05 03:53 | 20.38445 | -104.71832 | 19365 ft | 395 kts | 93° |
| 2026-05-05 03:53 | 20.38329 | -104.68916 | 19713 ft | 398 kts | 93° |
| 2026-05-05 03:53 | 20.38210 | -104.65949 | 20055 ft | 401 kts | 93° |
| 2026-05-05 03:53 | 20.38090 | -104.62991 | 20387 ft | 404 kts | 93° |
| 2026-05-05 03:54 | 20.37968 | -104.59970 | 20755 ft | 406 kts | 93° |
| 2026-05-05 03:54 | 20.37845 | -104.56942 | 21121 ft | 409 kts | 94° |
| 2026-05-05 03:54 | 20.37723 | -104.53935 | 21481 ft | 412 kts | 94° |
| 2026-05-05 03:54 | 20.37597 | -104.50867 | 21848 ft | 415 kts | 94° |
| 2026-05-05 03:55 | 20.37469 | -104.47766 | 22213 ft | 418 kts | 94° |
| 2026-05-05 03:55 | 20.37340 | -104.44651 | 22576 ft | 421 kts | 94° |
| 2026-05-05 03:55 | 20.37211 | -104.41557 | 22936 ft | 424 kts | 94° |
| 2026-05-05 03:55 | 20.37079 | -104.38389 | 23294 ft | 427 kts | 94° |
| 2026-05-05 03:56 | 20.36947 | -104.35244 | 23632 ft | 430 kts | 94° |
| 2026-05-05 03:56 | 20.36810 | -104.32035 | 23928 ft | 432 kts | 94° |
| 2026-05-05 03:56 | 20.36645 | -104.28818 | 24221 ft | 434 kts | 100° |
| 2026-05-05 03:56 | 20.35959 | -104.25735 | 24691 ft | 430 kts | 108° |
| 2026-05-05 03:57 | 20.35012 | -104.22721 | 25210 ft | 417 kts | 111° |
| 2026-05-05 03:57 | 20.34045 | -104.19954 | 25751 ft | 386 kts | 111° |
| 2026-05-05 03:57 | 20.33134 | -104.17387 | 26307 ft | 353 kts | 111° |
| 2026-05-05 03:57 | 20.32331 | -104.15034 | 26871 ft | 325 kts | 110° |
| 2026-05-05 03:58 | 20.31610 | -104.12805 | 27447 ft | 316 kts | 110° |
| 2026-05-05 03:58 | 20.30908 | -104.10586 | 27809 ft | 317 kts | 109° |
| 2026-05-05 03:58 | 20.30194 | -104.08326 | 27978 ft | 322 kts | 109° |
| 2026-05-05 03:58 | 20.29487 | -104.06090 | 28401 ft | 316 kts | 109° |
| 2026-05-05 03:59 | 20.28792 | -104.03908 | 28973 ft | 304 kts | 109° |
| 2026-05-05 03:59 | 20.28123 | -104.01818 | 29538 ft | 289 kts | 109° |
| 2026-05-05 03:59 | 20.27498 | -103.99870 | 30046 ft | 273 kts | 109° |
| 2026-05-05 03:59 | 20.26876 | -103.97936 | 30034 ft | 278 kts | 109° |
| 2026-05-05 04:00 | 20.26218 | -103.95886 | 28711 ft | 321 kts | 109° |
| 2026-05-05 04:00 | 20.25445 | -103.93453 | 26693 ft | 373 kts | 109° |
| 2026-05-05 04:00 | 20.24583 | -103.90651 | 25369 ft | 428 kts | 109° |
| 2026-05-05 04:00 | 20.23705 | -103.87725 | 26361 ft | 408 kts | 109° |
| 2026-05-05 04:01 | 20.22813 | -103.84818 | 26516 ft | 416 kts | 109° |
| 2026-05-05 04:01 | 20.21863 | -103.81852 | 26642 ft | 425 kts | 110° |
| 2026-05-05 04:01 | 20.20881 | -103.78853 | 26771 ft | 433 kts | 110° |
| 2026-05-05 04:01 | 20.19883 | -103.75823 | 26887 ft | 440 kts | 110° |
| 2026-05-05 04:02 | 20.18855 | -103.72704 | 27051 ft | 447 kts | 110° |
| 2026-05-05 04:02 | 20.17842 | -103.69618 | 27394 ft | 448 kts | 110° |
| 2026-05-05 04:02 | 20.16809 | -103.66460 | 27770 ft | 448 kts | 109° |
| 2026-05-05 04:02 | 20.15792 | -103.63346 | 28139 ft | 449 kts | 109° |
| 2026-05-05 04:03 | 20.14762 | -103.60190 | 28516 ft | 449 kts | 109° |
| 2026-05-05 04:03 | 20.13746 | -103.57075 | 28897 ft | 449 kts | 109° |
| 2026-05-05 04:03 | 20.12719 | -103.53929 | 29292 ft | 449 kts | 109° |
| 2026-05-05 04:03 | 20.11688 | -103.50773 | 29688 ft | 448 kts | 109° |
| 2026-05-05 04:04 | 20.10667 | -103.47649 | 30073 ft | 448 kts | 108° |
| 2026-05-05 04:04 | 20.09641 | -103.44514 | 30416 ft | 447 kts | 108° |
| 2026-05-05 04:04 | 20.08630 | -103.41428 | 30773 ft | 446 kts | 108° |
| 2026-05-05 04:04 | 20.07604 | -103.38298 | 31118 ft | 445 kts | 108° |
| 2026-05-05 04:05 | 20.06591 | -103.35211 | 31463 ft | 443 kts | 108° |
| 2026-05-05 04:05 | 20.05574 | -103.32111 | 31813 ft | 442 kts | 109° |
| 2026-05-05 04:05 | 20.04559 | -103.29022 | 32180 ft | 440 kts | 109° |
| 2026-05-05 04:05 | 20.03562 | -103.25986 | 32539 ft | 438 kts | 109° |
| 2026-05-05 04:06 | 20.02548 | -103.22902 | 32888 ft | 437 kts | 109° |
| 2026-05-05 04:06 | 20.01551 | -103.19872 | 32990 ft | 441 kts | 109° |
| 2026-05-05 04:06 | 19.99487 | -103.13604 | 33005 ft | 455 kts | 109° |
| 2026-05-05 04:07 | 19.97364 | -103.07167 | 33012 ft | 464 kts | 109° |
| 2026-05-05 04:07 | 19.95246 | -103.00754 | 33008 ft | 460 kts | 109° |
| 2026-05-05 04:08 | 19.93124 | -102.94338 | 33005 ft | 460 kts | 109° |
| 2026-05-05 04:08 | 19.90998 | -102.87917 | 32988 ft | 460 kts | 109° |
| 2026-05-05 04:09 | 19.88872 | -102.81506 | 32985 ft | 460 kts | 109° |
| 2026-05-05 04:09 | 19.86755 | -102.75131 | 32984 ft | 460 kts | 109° |
| 2026-05-05 04:10 | 19.84621 | -102.68714 | 32978 ft | 460 kts | 109° |
| 2026-05-05 04:10 | 19.82487 | -102.62303 | 32980 ft | 460 kts | 109° |
| 2026-05-05 04:11 | 19.80345 | -102.55937 | 32977 ft | 460 kts | 110° |
| 2026-05-05 04:11 | 19.77982 | -102.49607 | 32975 ft | 460 kts | 112° |
| 2026-05-05 04:12 | 19.75540 | -102.43334 | 32984 ft | 454 kts | 112° |
| 2026-05-05 04:12 | 19.74349 | -102.40274 | 32973 ft | 440 kts | 112° |
| 2026-05-05 04:12 | 19.73589 | -102.38313 | 32981 ft | 430 kts | 112° |